Time;durP1;ratioP1;P1;durP2;ratioP2;P2;SDS_P1;SDS_P2;PMS_P1;PMS_P2;Temp;Humidity;BMP_temperature;BMP_pressure;BME280_temperature;BME280_humidity;BME280_pressure;Samples;Min_cycle;Max_cycle;Signal;HPM_P1;HPM_P2
2022/01/08 00:02:22;;;;;;;0.50;0.50;;;-5.20;99.90;;;;;;5201221;28;20041;-73
2022/01/08 00:04:55;;;;;;;0.40;0.40;;;-5.00;99.90;;;;;;5219540;28;20127;-73
2022/01/08 00:07:29;;;;;;;0.50;0.50;;;-4.90;99.90;;;;;;5238959;28;20100;-73
2022/01/08 00:10:00;;;;;;;0.67;0.67;;;-4.80;99.90;;;;;;5251604;28;20614;-72
2022/01/08 00:12:33;;;;;;;1.00;1.00;;;-4.70;99.90;;;;;;5222813;28;20101;-72
2022/01/08 00:15:08;;;;;;;0.57;0.57;;;-4.60;99.90;;;;;;5219389;28;20035;-72
2022/01/08 00:17:41;;;;;;;0.40;0.40;;;-4.40;99.90;;;;;;5217947;28;20238;-72
2022/01/08 00:20:15;;;;;;;0.50;0.50;;;-4.20;99.90;;;;;;5250336;28;20531;-72
2022/01/08 00:22:52;;;;;;;0.50;0.50;;;-4.10;99.90;;;;;;5216502;28;20059;-73
2022/01/08 00:25:25;;;;;;;0.43;0.43;;;-4.00;99.90;;;;;;5211221;28;20043;-72
2022/01/08 00:28:02;;;;;;;0.40;0.40;;;-3.80;99.90;;;;;;5215547;28;20103;-72
2022/01/08 00:30:36;;;;;;;0.50;0.50;;;-3.70;99.90;;;;;;5249957;28;20032;-73
2022/01/08 00:33:07;;;;;;;0.60;0.60;;;-3.60;99.90;;;;;;5216715;28;20052;-73
2022/01/08 00:35:41;;;;;;;0.50;0.50;;;-3.60;99.90;;;;;;5258618;28;20047;-72
2022/01/08 00:38:17;;;;;;;0.50;0.50;;;-3.50;99.90;;;;;;5232915;28;20041;-72
2022/01/08 00:40:48;;;;;;;1.83;1.73;;;-3.40;99.90;;;;;;5216982;28;20057;-72
2022/01/08 00:43:21;;;;;;;0.77;0.77;;;-3.40;99.90;;;;;;5254141;28;20451;-72
2022/01/08 00:46:00;;;;;;;0.50;0.50;;;-3.50;99.90;;;;;;5202073;28;20021;-72
2022/01/08 00:48:32;;;;;;;0.40;0.40;;;-3.50;99.90;;;;;;5239461;28;20326;-74
2022/01/08 00:51:05;;;;;;;1.90;1.80;;;-3.50;99.90;;;;;;5222753;28;20028;-73
2022/01/08 00:53:41;;;;;;;0.50;0.50;;;-3.40;99.90;;;;;;5254679;28;20390;-73
2022/01/08 00:56:15;;;;;;;1.33;1.23;;;-3.40;99.90;;;;;;5254224;28;20032;-73
2022/01/08 00:58:51;;;;;;;0.80;0.80;;;-3.40;99.90;;;;;;5222589;28;20039;-72
2022/01/08 01:01:23;;;;;;;0.70;0.70;;;-3.30;99.90;;;;;;5223305;28;20033;-73
2022/01/08 01:03:56;;;;;;;2.27;1.80;;;-3.30;99.90;;;;;;5243543;28;20070;-73
2022/01/08 01:06:27;;;;;;;1.27;1.27;;;-3.30;99.90;;;;;;5215486;28;20407;-72
2022/01/08 01:08:58;;;;;;;0.90;0.90;;;-3.30;99.90;;;;;;5224741;28;20162;-73
2022/01/08 01:11:29;;;;;;;0.50;0.50;;;-3.30;99.90;;;;;;5224048;28;20024;-73
2022/01/08 01:14:02;;;;;;;0.50;0.50;;;-3.30;99.90;;;;;;5223809;28;20222;-73
2022/01/08 01:16:33;;;;;;;0.75;0.75;;;-3.20;99.90;;;;;;5235536;28;20044;-73
2022/01/08 01:19:07;;;;;;;0.50;0.50;;;-3.10;99.90;;;;;;5228065;28;20064;-73
2022/01/08 01:21:41;;;;;;;0.60;0.60;;;-3.00;99.90;;;;;;5221736;28;20318;-72
2022/01/08 01:24:17;;;;;;;0.45;0.45;;;-3.00;99.90;;;;;;5255839;28;20055;-73
2022/01/08 01:49:20;;;;;;;0.67;0.67;;;-2.30;99.90;;;;;;5264985;28;20472;-73
2022/01/08 01:51:55;;;;;;;0.50;0.50;;;-2.30;99.90;;;;;;5263788;28;20024;-73
2022/01/08 01:54:31;;;;;;;0.50;0.50;;;-2.20;99.90;;;;;;5266091;28;20070;-73
2022/01/08 01:57:05;;;;;;;0.40;0.40;;;-2.10;99.90;;;;;;5250071;28;20107;-72
2022/01/08 01:59:37;;;;;;;0.50;0.50;;;-2.10;99.90;;;;;;5257197;28;20032;-72
2022/01/08 02:02:09;;;;;;;0.43;0.43;;;-2.00;99.90;;;;;;5268924;28;20103;-73
2022/01/08 02:04:42;;;;;;;0.83;0.83;;;-1.90;99.90;;;;;;5255992;28;20105;-72
2022/01/08 02:07:15;;;;;;;0.50;0.50;;;-1.90;99.90;;;;;;5273717;28;20066;-72
2022/01/08 02:09:46;;;;;;;0.50;0.50;;;-1.90;99.90;;;;;;5228359;28;20054;-73
2022/01/08 02:12:22;;;;;;;0.50;0.50;;;-2.00;99.90;;;;;;5245086;28;20028;-73
2022/01/08 02:14:53;;;;;;;0.60;0.60;;;-2.10;99.90;;;;;;5264917;28;20289;-72
2022/01/08 02:17:31;;;;;;;0.80;0.80;;;-2.20;99.90;;;;;;5263199;28;20036;-73
2022/01/08 02:20:04;;;;;;;0.40;0.40;;;-2.30;99.90;;;;;;5262134;28;20027;-73
2022/01/08 02:22:38;;;;;;;0.40;0.40;;;-2.10;99.90;;;;;;5262428;28;20059;-72
2022/01/08 02:25:10;;;;;;;0.50;0.50;;;-2.10;99.90;;;;;;5244900;28;20051;-73
2022/01/08 02:27:42;;;;;;;0.40;0.40;;;-2.10;99.90;;;;;;5236744;28;20052;-72
2022/01/08 02:30:13;;;;;;;0.53;0.53;;;-2.10;99.90;;;;;;5255228;28;20089;-73
2022/01/08 02:32:47;;;;;;;0.60;0.60;;;-2.10;99.90;;;;;;5257187;28;20030;-73
2022/01/08 02:35:22;;;;;;;0.60;0.60;;;-2.10;99.90;;;;;;5245291;28;20087;-72
2022/01/08 02:37:53;;;;;;;0.60;0.60;;;-2.00;99.90;;;;;;5273208;28;20494;-72
2022/01/08 02:40:27;;;;;;;0.60;0.60;;;-2.00;99.90;;;;;;5261183;28;20095;-73
2022/01/08 02:43:09;;;;;;;0.50;0.50;;;-2.00;99.90;;;;;;5260302;28;20031;-73
2022/01/08 02:45:42;;;;;;;0.80;0.80;;;-1.90;99.90;;;;;;5259657;28;20040;-73
2022/01/08 02:48:13;;;;;;;1.50;1.40;;;-1.90;99.90;;;;;;5251341;28;20028;-72
2022/01/08 02:50:52;;;;;;;1.27;1.17;;;-1.90;99.90;;;;;;5259598;28;20496;-72
2022/01/08 02:53:23;;;;;;;0.47;0.47;;;-1.80;99.90;;;;;;5242820;28;20099;-72
2022/01/08 02:55:58;;;;;;;1.00;1.00;;;-1.90;99.90;;;;;;5239360;28;20047;-72
2022/01/08 02:58:29;;;;;;;0.40;0.40;;;-1.90;99.90;;;;;;5260042;28;20036;-72
2022/01/08 03:01:05;;;;;;;0.60;0.60;;;-1.80;99.90;;;;;;5248163;28;20048;-72
2022/01/08 03:03:40;;;;;;;0.77;0.77;;;-1.80;99.90;;;;;;5243499;28;20382;-75
2022/01/08 03:06:16;;;;;;;0.50;0.50;;;-1.70;99.90;;;;;;5255261;28;20054;-73
2022/01/08 03:08:54;;;;;;;0.70;0.70;;;-1.70;99.90;;;;;;5259857;28;20344;-73
2022/01/08 03:11:28;;;;;;;0.53;0.53;;;-1.80;99.90;;;;;;5279439;27;20036;-74
2022/01/08 03:14:00;;;;;;;0.90;0.90;;;-1.90;99.90;;;;;;5238821;28;20390;-72
2022/01/08 03:16:37;;;;;;;0.87;0.87;;;-1.80;99.90;;;;;;5241857;28;20280;-73
2022/01/08 03:19:11;;;;;;;0.50;0.50;;;-1.80;99.90;;;;;;5241683;28;20085;-73
2022/01/08 03:21:53;;;;;;;;;;;-1.70;99.90;;;;;;5233491;28;20153;-73
2022/01/08 03:24:27;;;;;;;0.50;0.50;;;-1.70;99.90;;;;;;5259344;28;20249;-72
2022/01/08 03:27:00;;;;;;;0.55;0.55;;;-1.80;99.90;;;;;;5249134;28;20032;-72
2022/01/08 03:29:37;;;;;;;0.43;0.43;;;-1.80;99.90;;;;;;5225386;28;20642;-72
2022/01/08 03:32:11;;;;;;;0.80;0.80;;;-1.80;99.90;;;;;;5279034;28;20079;-73
2022/01/08 03:34:45;;;;;;;0.83;0.83;;;-1.70;99.90;;;;;;5244128;28;20053;-72
2022/01/08 03:37:22;;;;;;;0.90;0.90;;;-1.60;99.90;;;;;;5240753;28;20024;-74
2022/01/08 03:39:59;;;;;;;0.40;0.40;;;-1.80;99.90;;;;;;5241632;28;20058;-73
2022/01/08 03:42:30;;;;;;;0.70;0.70;;;-2.00;99.90;;;;;;5257453;28;20047;-74
2022/01/08 03:45:09;;;;;;;1.00;1.00;;;-2.00;99.90;;;;;;5241453;28;20028;-73
2022/01/08 03:50:22;;;;;;;0.60;0.60;;;-2.10;99.90;;;;;;5259917;28;20036;-73
2022/01/08 03:53:00;;;;;;;0.80;0.80;;;-2.10;99.90;;;;;;5261055;28;20038;-73
2022/01/08 03:55:34;;;;;;;1.37;1.13;;;-1.90;99.90;;;;;;5250128;28;20099;-73
2022/01/08 03:58:05;;;;;;;0.68;0.68;;;-1.80;99.90;;;;;;5241029;28;20036;-73
2022/01/08 04:00:41;;;;;;;0.50;0.50;;;-1.80;99.90;;;;;;5245950;28;20116;-73
2022/01/08 04:03:18;;;;;;;0.40;0.40;;;-1.70;99.90;;;;;;5233336;28;20398;-73
2022/01/08 04:05:50;;;;;;;0.40;0.40;;;-1.80;99.90;;;;;;5251396;28;20084;-73
2022/01/08 04:08:21;;;;;;;0.60;0.60;;;-1.70;99.90;;;;;;5239370;28;20048;-73
2022/01/08 04:10:55;;;;;;;0.50;0.50;;;-1.70;99.90;;;;;;5223591;28;20039;-74
2022/01/08 04:13:35;;;;;;;0.50;0.50;;;-1.70;99.90;;;;;;5257550;28;20028;-73
2022/01/08 04:16:19;;;;;;;0.40;0.40;;;-1.60;99.90;;;;;;5258138;28;20549;-73
2022/01/08 04:18:58;;;;;;;0.40;0.40;;;-1.60;99.90;;;;;;5251166;28;20485;-73
2022/01/08 04:24:11;;;;;;;0.70;0.70;;;-1.40;99.90;;;;;;5258711;28;20395;-72
2022/01/08 04:26:43;;;;;;;0.60;0.60;;;-1.40;99.90;;;;;;5262524;28;20081;-73
2022/01/08 04:29:16;;;;;;;0.50;0.50;;;-1.30;99.90;;;;;;5247872;28;20044;-72
2022/01/08 04:31:50;;;;;;;1.60;1.58;;;-1.30;99.90;;;;;;5257949;28;20028;-73
2022/01/08 04:34:23;;;;;;;0.82;0.82;;;-1.30;99.90;;;;;;5257846;28;20973;-73
2022/01/08 04:37:00;;;;;;;0.68;0.68;;;-1.30;99.90;;;;;;5248523;28;20043;-73
2022/01/08 04:39:36;;;;;;;0.50;0.50;;;-1.40;99.90;;;;;;5259881;28;20116;-73
2022/01/08 04:42:12;;;;;;;0.60;0.60;;;-1.40;99.90;;;;;;5249558;28;20063;-73
2022/01/08 04:44:45;;;;;;;0.80;0.80;;;-1.50;99.90;;;;;;5260802;28;20031;-73
2022/01/08 04:47:21;;;;;;;0.57;0.57;;;-1.50;99.90;;;;;;5241132;28;20046;-74
2022/01/08 04:49:52;;;;;;;2.25;2.05;;;-1.60;99.90;;;;;;5242347;28;20116;-74
2022/01/08 04:52:26;;;;;;;0.50;0.50;;;-1.60;99.90;;;;;;5260258;28;20087;-73
2022/01/08 04:55:01;;;;;;;;;;;-1.60;99.90;;;;;;5260713;28;20028;-73
2022/01/08 04:57:35;;;;;;;0.73;0.73;;;-1.60;99.90;;;;;;5259684;28;19916;-73
2022/01/08 05:00:14;;;;;;;0.80;0.80;;;-1.60;99.90;;;;;;5231213;28;20095;-73
2022/01/08 05:02:46;;;;;;;0.73;0.73;;;-1.60;99.90;;;;;;5239552;28;20482;-73
2022/01/08 05:05:20;;;;;;;0.50;0.50;;;-1.50;99.90;;;;;;5239926;28;20249;-73
2022/01/08 05:07:57;;;;;;;1.88;1.77;;;-1.60;99.90;;;;;;5279951;28;20058;-73
2022/01/08 05:10:33;;;;;;;0.50;0.50;;;-1.70;99.90;;;;;;5260069;28;20067;-73
2022/01/08 05:13:12;;;;;;;0.40;0.40;;;-1.80;99.90;;;;;;5274396;28;20635;-73
2022/01/08 05:15:48;;;;;;;1.30;1.30;;;-1.80;99.90;;;;;;5274436;28;20031;-73
2022/01/08 05:18:19;;;;;;;0.50;0.50;;;-1.60;99.90;;;;;;5254645;28;20024;-73
2022/01/08 05:21:05;;;;;;;0.53;0.53;;;-1.70;99.90;;;;;;5280557;28;20039;-73
2022/01/08 05:23:35;;;;;;;0.50;0.50;;;-1.60;99.90;;;;;;5262810;28;20027;-73
2022/01/08 05:26:11;;;;;;;0.57;0.57;;;-1.60;99.90;;;;;;5253738;28;20058;-74
2022/01/08 05:28:45;;;;;;;0.77;0.77;;;-1.50;99.90;;;;;;5283194;28;20263;-74
2022/01/08 05:31:23;;;;;;;0.65;0.65;;;-1.60;99.90;;;;;;5266278;28;20030;-73
2022/01/08 05:33:56;;;;;;;0.50;0.50;;;-1.60;99.90;;;;;;5254147;28;20342;-72
2022/01/08 05:36:27;;;;;;;0.40;0.40;;;-1.60;99.90;;;;;;5284729;28;20024;-72
2022/01/08 05:39:02;;;;;;;1.47;1.43;;;-1.60;99.90;;;;;;5275381;28;20849;-72
2022/01/08 05:41:35;;;;;;;0.30;0.30;;;-1.70;99.90;;;;;;5266491;28;20035;-72
2022/01/08 05:44:09;;;;;;;0.70;0.70;;;-1.60;99.90;;;;;;5266537;28;20331;-73
2022/01/08 05:46:44;;;;;;;0.73;0.73;;;-1.60;99.90;;;;;;5282585;28;20066;-72
2022/01/08 05:49:19;;;;;;;1.17;0.97;;;-1.60;99.90;;;;;;5271290;28;20051;-73
2022/01/08 05:51:55;;;;;;;0.60;0.60;;;-1.50;99.90;;;;;;5261694;28;20070;-72
2022/01/08 05:54:32;;;;;;;1.10;1.10;;;-1.50;99.90;;;;;;5262394;28;20110;-73
2022/01/08 05:57:06;;;;;;;0.43;0.43;;;-1.50;99.90;;;;;;5263461;28;20091;-73
2022/01/08 05:59:42;;;;;;;0.60;0.60;;;-1.50;99.90;;;;;;5265532;28;20089;-73
2022/01/08 06:02:16;;;;;;;0.50;0.50;;;-1.40;99.90;;;;;;5286992;27;20528;-73
2022/01/08 06:04:51;;;;;;;0.50;0.50;;;-1.40;99.90;;;;;;5280507;27;20362;-73
2022/01/08 06:07:22;;;;;;;0.57;0.57;;;-1.40;99.90;;;;;;5285242;27;20107;-73
2022/01/08 06:10:00;;;;;;;1.07;1.07;;;-1.30;99.90;;;;;;5295982;27;20059;-73
2022/01/08 06:12:32;;;;;;;0.50;0.50;;;-1.30;99.90;;;;;;5261910;28;20036;-73
2022/01/08 06:15:03;;;;;;;0.50;0.50;;;-1.30;99.90;;;;;;5261861;28;20036;-72
2022/01/08 06:17:34;;;;;;;1.53;1.43;;;-1.40;99.90;;;;;;5262566;28;20047;-73
2022/01/08 06:20:09;;;;;;;0.40;0.40;;;-1.60;99.90;;;;;;5261675;28;20343;-73
2022/01/08 06:22:45;;;;;;;0.93;0.93;;;-1.60;99.90;;;;;;5262176;28;20039;-73
2022/01/08 06:25:16;;;;;;;0.50;0.50;;;-1.60;99.90;;;;;;5262659;28;20038;-73
2022/01/08 06:27:49;;;;;;;0.60;0.60;;;-1.60;99.90;;;;;;5259609;28;20334;-73
2022/01/08 06:30:20;;;;;;;3.60;2.30;;;-1.50;99.90;;;;;;5262095;28;20024;-74
2022/01/08 06:32:58;;;;;;;4.63;2.63;;;-1.50;99.90;;;;;;5269420;28;20035;-74
2022/01/08 06:35:35;;;;;;;0.40;0.40;;;-1.50;99.90;;;;;;5243076;28;20063;-73
2022/01/08 06:38:10;;;;;;;0.40;0.40;;;-1.50;99.90;;;;;;5259415;28;20023;-73
2022/01/08 06:40:41;;;;;;;0.40;0.40;;;-1.50;99.90;;;;;;5261869;28;20350;-73
2022/01/08 06:43:15;;;;;;;1.10;1.10;;;-1.50;99.90;;;;;;5293309;27;20024;-75
2022/01/08 06:45:48;;;;;;;1.30;1.25;;;-1.60;99.90;;;;;;5260596;28;20032;-73
2022/01/08 06:48:22;;;;;;;0.38;0.38;;;-1.60;99.90;;;;;;5259156;28;20052;-72
2022/01/08 06:51:00;;;;;;;2.17;2.05;;;-1.60;99.90;;;;;;5258998;28;20044;-73
2022/01/08 06:53:31;;;;;;;0.57;0.57;;;-1.60;99.90;;;;;;5258965;28;20118;-73
2022/01/08 06:56:06;;;;;;;0.87;0.87;;;-1.60;99.90;;;;;;5259419;28;20082;-73
2022/01/08 06:58:43;;;;;;;0.60;0.60;;;-1.80;99.90;;;;;;5270833;28;20051;-73
2022/01/08 07:01:19;;;;;;;0.67;0.67;;;-1.70;99.90;;;;;;5276227;28;20035;-73
2022/01/08 07:03:59;;;;;;;0.57;0.57;;;-1.70;99.90;;;;;;5260487;28;20035;-73
2022/01/08 07:06:30;;;;;;;0.70;0.70;;;-1.50;99.90;;;;;;5269254;27;20135;-73
2022/01/08 07:09:06;;;;;;;0.97;0.97;;;-1.50;99.90;;;;;;5261793;28;20047;-73
2022/01/08 07:11:46;;;;;;;0.47;0.47;;;-1.50;99.90;;;;;;5261228;28;20043;-74
2022/01/08 07:14:17;;;;;;;1.05;1.05;;;-1.50;99.90;;;;;;5259963;28;20027;-73
2022/01/08 07:16:50;;;;;;;0.60;0.60;;;-1.70;99.90;;;;;;5263185;28;20221;-73
2022/01/08 07:19:23;;;;;;;0.77;0.77;;;-1.80;99.90;;;;;;5260006;28;20073;-73
2022/01/08 07:21:54;;;;;;;0.70;0.70;;;-1.90;99.90;;;;;;5260271;28;20057;-73
2022/01/08 07:24:33;;;;;;;0.50;0.50;;;-1.90;99.90;;;;;;5251718;28;20124;-73
2022/01/08 07:27:05;;;;;;;0.40;0.40;;;-1.80;99.90;;;;;;5256416;28;20035;-72
2022/01/08 07:29:36;;;;;;;1.27;1.27;;;-1.80;99.90;;;;;;5259493;28;20146;-73
2022/01/08 07:32:07;;;;;;;1.20;1.20;;;-1.80;99.90;;;;;;5262706;28;20514;-73
2022/01/08 07:34:40;;;;;;;4.63;1.83;;;-1.80;99.90;;;;;;5259505;28;20039;-73
2022/01/08 07:37:11;;;;;;;0.50;0.50;;;-1.70;99.90;;;;;;5259244;28;20032;-73
2022/01/08 07:39:42;;;;;;;0.83;0.83;;;-1.70;99.90;;;;;;5258193;28;20068;-73
2022/01/08 07:42:13;;;;;;;1.00;1.00;;;-1.70;99.90;;;;;;5275625;28;20055;-73
2022/01/08 07:44:45;;;;;;;0.50;0.50;;;-1.70;99.90;;;;;;5256047;28;20067;-73
2022/01/08 07:47:18;;;;;;;0.53;0.53;;;-1.60;99.90;;;;;;5274107;27;20263;-73
2022/01/08 07:49:49;;;;;;;0.50;0.50;;;-1.40;99.90;;;;;;5237062;28;20040;-73
2022/01/08 07:52:25;;;;;;;0.60;0.60;;;-1.30;99.90;;;;;;5237144;28;20445;-73
2022/01/08 07:55:01;;;;;;;0.63;0.63;;;-1.10;99.90;;;;;;5239144;28;20025;-73
2022/01/08 07:57:35;;;;;;;0.50;0.50;;;-1.20;99.90;;;;;;5238519;28;20039;-73
2022/01/08 08:00:10;;;;;;;0.40;0.40;;;-1.10;99.90;;;;;;5239431;28;20032;-74
2022/01/08 08:02:46;;;;;;;0.90;0.90;;;-1.00;99.90;;;;;;5231348;28;20044;-73
2022/01/08 08:05:17;;;;;;;0.50;0.50;;;-1.00;99.90;;;;;;5239915;28;20047;-73
2022/01/08 08:07:51;;;;;;;0.50;0.50;;;-1.00;99.90;;;;;;5246176;28;20222;-73
2022/01/08 08:10:25;;;;;;;0.85;0.85;;;-1.20;99.90;;;;;;5240273;28;20040;-73
2022/01/08 08:12:58;;;;;;;0.40;0.40;;;-1.20;99.90;;;;;;5240004;28;20074;-73
2022/01/08 08:15:37;;;;;;;0.50;0.50;;;-1.20;99.90;;;;;;5240742;28;20040;-73
2022/01/08 08:18:12;;;;;;;0.53;0.53;;;-1.10;99.90;;;;;;5239045;28;20040;-74
2022/01/08 08:20:46;;;;;;;0.50;0.50;;;-1.00;99.90;;;;;;5240063;28;20066;-73
2022/01/08 08:23:19;;;;;;;0.93;0.93;;;-0.90;99.90;;;;;;5241951;28;20074;-74
2022/01/08 08:25:53;;;;;;;1.55;1.25;;;-0.90;99.90;;;;;;5240675;28;20093;-73
2022/01/08 08:28:24;;;;;;;0.60;0.60;;;-0.90;99.90;;;;;;5272551;28;20042;-75
2022/01/08 08:30:54;;;;;;;0.70;0.70;;;-0.80;99.90;;;;;;5240940;28;20036;-73
2022/01/08 08:33:25;;;;;;;0.40;0.40;;;-0.80;99.90;;;;;;5256469;28;20310;-74
2022/01/08 08:36:07;;;;;;;0.50;0.50;;;-0.60;99.90;;;;;;5226932;28;20060;-73
2022/01/08 08:38:37;;;;;;;0.50;0.50;;;-0.30;99.90;;;;;;5236541;28;20025;-74
2022/01/08 08:41:12;;;;;;;0.50;0.50;;;0.00;99.90;;;;;;5238161;28;20459;-74
2022/01/08 08:43:46;;;;;;;0.90;0.90;;;0.10;99.90;;;;;;5214388;28;20024;-75
2022/01/08 08:46:17;;;;;;;0.70;0.70;;;0.40;99.90;;;;;;5248854;28;20032;-75
2022/01/08 08:48:51;;;;;;;0.50;0.50;;;0.40;99.90;;;;;;5261690;28;20279;-76
2022/01/08 08:51:22;;;;;;;0.73;0.73;;;0.60;99.90;;;;;;5250498;28;20028;-75
2022/01/08 08:53:55;;;;;;;0.60;0.60;;;0.70;99.90;;;;;;5262390;28;20039;-76
2022/01/08 08:56:28;;;;;;;1.45;1.45;;;0.80;99.90;;;;;;5258353;28;20036;-78
2022/01/08 08:58:59;;;;;;;0.50;0.50;;;1.20;99.90;;;;;;5260015;28;20089;-78
2022/01/08 09:01:30;;;;;;;0.60;0.60;;;1.40;99.90;;;;;;5261621;28;20099;-77
2022/01/08 09:04:09;;;;;;;0.57;0.57;;;1.70;99.90;;;;;;5268580;28;20422;-77
2022/01/08 09:06:40;;;;;;;0.50;0.50;;;1.90;99.90;;;;;;5216256;28;20468;-78
2022/01/08 09:09:14;;;;;;;0.50;0.50;;;1.90;99.90;;;;;;5261627;28;20051;-78
2022/01/08 09:11:47;;;;;;;0.90;0.90;;;1.90;99.90;;;;;;5246725;28;20036;-80
2022/01/08 09:14:26;;;;;;;0.80;0.80;;;1.80;99.90;;;;;;5245173;28;20032;-78
2022/01/08 09:17:04;;;;;;;0.70;0.70;;;1.50;99.90;;;;;;5250964;28;20047;-78
2022/01/08 09:19:42;;;;;;;0.80;0.80;;;1.60;99.90;;;;;;5244299;28;20059;-78
2022/01/08 09:22:19;;;;;;;0.50;0.50;;;1.70;99.90;;;;;;5226943;28;20089;-78
2022/01/08 09:24:51;;;;;;;1.48;1.45;;;1.70;99.90;;;;;;5242282;28;20077;-77
2022/01/08 09:27:25;;;;;;;0.75;0.75;;;1.50;99.90;;;;;;5243292;28;20021;-78
2022/01/08 09:29:56;;;;;;;0.68;0.68;;;1.50;99.90;;;;;;5242241;28;20099;-78
2022/01/08 09:32:38;;;;;;;0.65;0.65;;;1.60;99.90;;;;;;5241760;28;20048;-79
2022/01/08 09:35:16;;;;;;;1.20;1.20;;;1.60;99.90;;;;;;5233292;28;20047;-79
2022/01/08 09:37:47;;;;;;;0.43;0.43;;;1.80;99.90;;;;;;5241313;28;20081;-79
2022/01/08 09:40:22;;;;;;;0.50;0.50;;;1.70;99.90;;;;;;5241084;28;20405;-78
2022/01/08 09:42:56;;;;;;;0.70;0.70;;;1.70;99.90;;;;;;5235778;28;20074;-78
2022/01/08 09:45:31;;;;;;;0.80;0.80;;;1.60;99.90;;;;;;5203300;28;20044;-78
2022/01/08 09:48:02;;;;;;;0.70;0.70;;;0.80;99.90;;;;;;5241481;28;20573;-78
2022/01/08 09:50:45;;;;;;;0.75;0.75;;;0.80;99.90;;;;;;5242610;28;20032;-77
2022/01/08 09:53:16;;;;;;;0.75;0.75;;;0.70;99.90;;;;;;5240402;28;20040;-76
2022/01/08 09:55:47;;;;;;;1.20;1.20;;;0.60;99.90;;;;;;5236962;28;20082;-76
2022/01/08 09:58:23;;;;;;;0.90;0.90;;;0.80;99.90;;;;;;5242824;28;20111;-77
2022/01/08 10:00:56;;;;;;;0.80;0.80;;;0.90;99.90;;;;;;5260979;28;20039;-76
2022/01/08 10:03:32;;;;;;;1.70;1.65;;;1.20;99.90;;;;;;5235543;28;20508;-75
2022/01/08 10:06:11;;;;;;;1.15;1.15;;;1.30;99.90;;;;;;5235146;28;20490;-75
2022/01/08 10:08:43;;;;;;;0.88;0.88;;;1.30;99.90;;;;;;5260057;28;20044;-76
2022/01/08 10:11:14;;;;;;;0.77;0.77;;;1.30;99.90;;;;;;5242222;28;20122;-75
2022/01/08 10:13:52;;;;;;;0.50;0.50;;;1.30;99.90;;;;;;5262560;28;20338;-76
2022/01/08 10:19:27;;;;;;;1.05;1.05;;;1.30;99.90;;;;;;5220374;28;20067;-74
2022/01/08 10:22:01;;;;;;;1.73;1.63;;;1.50;99.90;;;;;;5244212;28;20043;-77
2022/01/08 10:24:39;;;;;;;0.80;0.80;;;1.50;99.90;;;;;;5226209;28;20058;-74
2022/01/08 10:27:10;;;;;;;0.60;0.60;;;1.30;99.90;;;;;;5243021;28;20059;-74
2022/01/08 10:29:55;;;;;;;1.10;1.10;;;1.30;99.90;;;;;;5208863;28;20036;-75
2022/01/08 10:32:27;;;;;;;1.77;1.70;;;1.40;99.90;;;;;;5258643;28;20107;-75
2022/01/08 10:34:58;;;;;;;0.70;0.70;;;1.40;99.90;;;;;;5263848;28;20096;-75
2022/01/08 10:37:28;;;;;;;1.00;1.00;;;1.40;99.90;;;;;;5242127;28;20040;-75
2022/01/08 10:40:01;;;;;;;0.50;0.50;;;1.30;99.90;;;;;;5238140;28;20081;-77
2022/01/08 10:42:38;;;;;;;0.50;0.50;;;1.40;99.90;;;;;;5263968;28;20111;-75
2022/01/08 10:45:15;;;;;;;0.80;0.80;;;1.40;99.90;;;;;;5225041;28;20039;-74
2022/01/08 10:48:03;;;;;;;0.60;0.60;;;1.00;99.90;;;;;;5240466;28;20048;-75
2022/01/08 10:50:34;;;;;;;0.95;0.95;;;1.00;99.90;;;;;;5237446;28;20035;-75
2022/01/08 10:53:08;;;;;;;0.50;0.50;;;1.00;99.90;;;;;;5239266;28;20101;-76
2022/01/08 10:55:42;;;;;;;0.55;0.55;;;1.20;99.90;;;;;;5239642;28;20350;-74
2022/01/08 10:58:17;;;;;;;0.68;0.68;;;1.20;99.90;;;;;;5245809;28;20060;-75
2022/01/08 11:00:51;;;;;;;0.60;0.60;;;1.30;99.90;;;;;;5241295;28;20105;-74
2022/01/08 11:03:43;;;;;;;1.00;1.00;;;1.30;99.90;;;;;;5224104;28;20042;-74
2022/01/08 11:06:16;;;;;;;0.68;0.68;;;1.40;99.90;;;;;;5214059;28;20386;-73
2022/01/08 11:09:02;;;;;;;0.52;0.52;;;1.50;99.90;;;;;;5260937;28;20027;-73
2022/01/08 11:11:36;;;;;;;1.48;1.48;;;1.80;99.90;;;;;;5263403;28;20040;-73
2022/01/08 11:14:08;;;;;;;1.02;1.02;;;1.80;99.90;;;;;;5261732;28;20072;-73
2022/01/08 11:16:41;;;;;;;0.73;0.73;;;1.90;99.90;;;;;;5257622;28;20050;-73
2022/01/08 11:19:14;;;;;;;0.90;0.90;;;2.00;99.90;;;;;;5275402;28;20035;-73
2022/01/08 11:21:48;;;;;;;0.50;0.50;;;2.00;99.90;;;;;;5273878;28;20132;-73
2022/01/08 11:24:23;;;;;;;0.65;0.65;;;2.00;99.90;;;;;;5241888;28;20044;-73
2022/01/08 11:27:01;;;;;;;0.63;0.63;;;1.90;99.90;;;;;;5258404;28;20043;-74
2022/01/08 11:29:38;;;;;;;0.90;0.90;;;2.10;99.90;;;;;;5277096;28;20043;-73
2022/01/08 11:32:14;;;;;;;0.65;0.65;;;2.20;99.90;;;;;;5259147;28;20039;-74
2022/01/08 11:34:45;;;;;;;0.60;0.60;;;2.10;99.90;;;;;;5260348;28;20126;-74
2022/01/08 11:37:24;;;;;;;2.00;1.05;;;2.80;99.90;;;;;;5252196;28;20035;-75
2022/01/08 11:40:10;;;;;;;0.80;0.80;;;3.80;99.90;;;;;;5259754;28;20053;-74
2022/01/08 11:42:44;;;;;;;0.68;0.68;;;4.20;99.90;;;;;;5277356;28;20107;-73
2022/01/08 11:45:27;;;;;;;0.68;0.68;;;4.10;99.90;;;;;;5238166;28;20032;-74
2022/01/08 11:48:06;;;;;;;0.70;0.70;;;4.00;99.90;;;;;;5255251;28;20024;-72
2022/01/08 11:50:42;;;;;;;1.00;1.00;;;3.60;99.90;;;;;;5244788;28;20026;-72
2022/01/08 11:53:34;;;;;;;0.60;0.60;;;3.20;99.90;;;;;;5261244;28;20030;-72
2022/01/08 11:56:11;;;;;;;0.55;0.55;;;2.80;99.90;;;;;;5279995;28;20028;-75
2022/01/08 11:58:42;;;;;;;0.80;0.80;;;2.70;99.90;;;;;;5241401;28;20352;-73
2022/01/08 12:01:14;;;;;;;0.47;0.47;;;3.50;99.90;;;;;;5258108;28;20031;-73
2022/01/08 12:03:57;;;;;;;0.60;0.60;;;5.00;99.90;;;;;;5277015;28;20036;-72
2022/01/08 12:06:34;;;;;;;0.73;0.73;;;5.10;99.90;;;;;;5280930;27;20052;-73
2022/01/08 12:09:21;;;;;;;0.68;0.68;;;5.50;99.90;;;;;;5254419;28;20055;-74
2022/01/08 12:12:04;;;;;;;0.73;0.73;;;6.10;99.90;;;;;;5253422;28;20070;-72
2022/01/08 12:14:40;;;;;;;0.70;0.70;;;7.60;99.90;;;;;;5271566;28;20040;-72
2022/01/08 12:17:21;;;;;;;0.70;0.70;;;7.90;99.90;;;;;;5257687;28;20055;-72
2022/01/08 12:19:57;;;;;;;1.30;1.30;;;8.70;99.90;;;;;;5256673;28;20075;-72
2022/01/08 12:22:32;;;;;;;1.33;1.33;;;9.30;99.90;;;;;;5237789;28;20036;-73
2022/01/08 12:25:04;;;;;;;1.58;1.58;;;9.80;99.90;;;;;;5254594;28;20089;-72
2022/01/08 12:27:34;;;;;;;0.82;0.82;;;9.40;99.90;;;;;;5255463;28;20036;-72
2022/01/08 12:30:17;;;;;;;2.35;2.15;;;9.60;99.90;;;;;;5257631;28;20039;-73
2022/01/08 12:32:52;;;;;;;1.13;1.13;;;9.90;99.90;;;;;;5249869;28;20039;-73
2022/01/08 12:35:34;;;;;;;1.15;1.15;;;9.40;99.90;;;;;;5223995;28;20296;-73
2022/01/08 12:38:22;;;;;;;0.80;0.80;;;6.80;99.90;;;;;;5240214;28;20520;-72
2022/01/08 12:40:55;;;;;;;0.70;0.70;;;6.80;99.90;;;;;;5247503;28;20024;-72
2022/01/08 12:43:37;;;;;;;1.08;1.08;;;8.10;99.90;;;;;;5254163;28;20042;-73
2022/01/08 12:46:21;;;;;;;0.60;0.60;;;7.30;99.90;;;;;;5240253;28;20093;-73
2022/01/08 12:49:17;;;;;;;1.13;1.13;;;7.50;99.90;;;;;;5249153;28;20485;-72
2022/01/08 12:51:57;;;;;;;1.40;1.40;;;8.30;99.90;;;;;;5298078;27;20044;-72
2022/01/08 12:54:30;;;;;;;0.88;0.88;;;8.50;99.90;;;;;;5258605;28;20036;-72
2022/01/08 12:57:05;;;;;;;1.13;1.13;;;7.50;99.90;;;;;;5255948;28;20059;-73
2022/01/08 12:59:42;;;;;;;;;;;7.10;99.90;;;;;;5256598;28;20032;-73
2022/01/08 13:02:12;;;;;;;1.58;1.58;;;7.10;99.90;;;;;;5256351;28;20398;-73
2022/01/08 13:04:43;;;;;;;0.93;0.93;;;7.00;99.90;;;;;;5245149;28;20122;-73
2022/01/08 13:07:21;;;;;;;1.10;1.10;;;6.80;99.90;;;;;;5238297;28;20280;-73
2022/01/08 13:10:08;;;;;;;1.13;1.10;;;6.20;99.90;;;;;;5255344;28;20040;-72
2022/01/08 13:12:39;;;;;;;1.08;1.08;;;5.50;99.90;;;;;;5253201;28;20481;-72
2022/01/08 13:15:12;;;;;;;0.73;0.73;;;4.10;99.90;;;;;;5240541;28;20072;-73
2022/01/08 13:17:43;;;;;;;1.85;1.75;;;3.90;99.90;;;;;;5237464;28;20109;-73
2022/01/08 13:20:14;;;;;;;0.55;0.55;;;3.70;99.90;;;;;;5221126;28;20044;-73
2022/01/08 13:22:49;;;;;;;1.17;1.10;;;3.50;99.90;;;;;;5238936;28;20337;-74
2022/01/08 13:25:25;;;;;;;1.27;1.27;;;3.30;99.90;;;;;;5255162;28;20044;-72
2022/01/08 13:28:00;;;;;;;0.60;0.60;;;3.20;99.90;;;;;;5257034;28;20082;-73
2022/01/08 13:30:36;;;;;;;;;;;2.60;99.90;;;;;;5221849;28;20112;-73
2022/01/08 13:33:10;;;;;;;0.50;0.50;;;2.80;99.90;;;;;;5249650;28;19920;-73
2022/01/08 13:35:45;;;;;;;1.10;1.10;;;3.00;99.90;;;;;;5256917;28;20245;-73
2022/01/08 13:38:35;;;;;;;0.88;0.88;;;3.40;99.90;;;;;;5238165;28;20637;-73
2022/01/08 13:41:16;;;;;;;0.80;0.80;;;4.00;99.90;;;;;;5251014;28;20031;-74
2022/01/08 13:44:04;;;;;;;0.80;0.80;;;4.80;99.90;;;;;;5256930;28;20050;-75
2022/01/08 13:46:39;;;;;;;0.70;0.70;;;5.10;99.90;;;;;;5238507;28;20040;-73
2022/01/08 13:49:14;;;;;;;0.93;0.93;;;5.90;99.90;;;;;;5256586;28;20042;-74
2022/01/08 13:51:45;;;;;;;;;;;5.80;99.90;;;;;;5243191;28;20059;-74
2022/01/08 13:54:16;;;;;;;0.75;0.75;;;5.90;99.90;;;;;;5244628;28;20229;-74
2022/01/08 13:56:52;;;;;;;0.80;0.80;;;6.20;99.90;;;;;;5225307;28;20137;-73
2022/01/08 13:59:36;;;;;;;0.82;0.82;;;7.00;99.90;;;;;;5261670;28;20038;-72
2022/01/08 14:02:11;;;;;;;0.70;0.70;;;7.60;99.90;;;;;;5260911;28;20253;-74
2022/01/08 14:04:45;;;;;;;;;;;7.00;99.90;;;;;;5249132;28;20048;-74